createdAt,value
2022-10-04T00:00:41.968Z,10.19
2022-10-04T00:03:28.667Z,10.19
2022-10-04T00:05:58.431Z,10.15
2022-10-04T00:08:46.303Z,10.07
2022-10-04T00:11:36.588Z,9.97
2022-10-04T00:14:37.902Z,9.94
2022-10-04T00:17:13.986Z,9.96
2022-10-04T00:19:47.040Z,9.90
2022-10-04T00:22:22.990Z,9.83
2022-10-04T00:25:07.797Z,9.85
2022-10-04T00:27:36.962Z,9.74
2022-10-04T00:30:23.839Z,9.74
2022-10-04T00:33:02.320Z,9.70
2022-10-04T00:35:49.516Z,9.67
2022-10-04T00:38:26.154Z,9.63
2022-10-04T00:40:56.714Z,9.58
2022-10-04T00:43:39.108Z,9.56
2022-10-04T00:46:18.657Z,9.56
2022-10-04T00:48:53.303Z,9.53
2022-10-04T00:51:30.075Z,9.51
2022-10-04T00:54:05.029Z,9.49
2022-10-04T00:56:39.709Z,9.48
2022-10-04T00:59:22.270Z,9.46
2022-10-04T01:01:54.797Z,9.42
2022-10-04T01:04:36.247Z,9.35
2022-10-04T01:07:05.482Z,9.30
2022-10-04T01:09:36.984Z,9.18
2022-10-04T01:12:33.012Z,9.10
2022-10-04T01:15:44.745Z,9.04
2022-10-04T01:18:33.833Z,9.00
2022-10-04T01:21:28.433Z,8.94
2022-10-04T01:24:21.419Z,9.00
2022-10-04T01:26:48.033Z,9.04
2022-10-04T01:29:35.625Z,9.11
2022-10-04T01:32:02.309Z,9.10
2022-10-04T01:34:30.711Z,9.12
2022-10-04T01:37:00.107Z,9.08
2022-10-04T01:39:28.885Z,9.08
2022-10-04T01:42:09.825Z,9.11
2022-10-04T01:44:59.607Z,8.96
2022-10-04T01:47:45.215Z,8.80
2022-10-04T01:50:18.963Z,8.76
2022-10-04T01:52:55.674Z,8.74
2022-10-04T01:55:29.272Z,8.75
2022-10-04T01:58:04.506Z,8.75
2022-10-04T02:00:32.025Z,8.65
2022-10-04T02:03:08.470Z,8.64
2022-10-04T02:05:51.655Z,8.63
2022-10-04T02:08:25.619Z,8.62
2022-10-04T02:10:54.967Z,8.61
2022-10-04T02:13:24.369Z,8.54
2022-10-04T02:15:51.801Z,8.53
2022-10-04T02:18:21.241Z,8.41
2022-10-04T02:20:50.227Z,8.37
2022-10-04T02:23:21.511Z,8.32
2022-10-04T02:25:48.475Z,8.30
2022-10-04T02:28:16.561Z,8.24
2022-10-04T02:31:06.800Z,8.28
2022-10-04T02:33:33.923Z,8.29
2022-10-04T02:36:01.609Z,8.25
2022-10-04T02:38:37.149Z,8.26
2022-10-04T02:41:13.123Z,8.27
2022-10-04T02:43:56.673Z,8.24
2022-10-04T02:46:44.336Z,8.18
2022-10-04T02:49:38.086Z,8.17
2022-10-04T02:52:11.450Z,8.13
2022-10-04T02:54:55.951Z,8.13
2022-10-04T02:57:23.649Z,8.18
2022-10-04T02:59:51.347Z,8.22
2022-10-04T03:02:30.672Z,8.18
2022-10-04T03:05:11.697Z,8.17
2022-10-04T03:07:39.586Z,8.22
2022-10-04T03:10:11.974Z,8.19
2022-10-04T03:12:40.857Z,8.20
2022-10-04T03:15:12.185Z,8.18
2022-10-04T03:17:41.935Z,8.14
2022-10-04T03:20:12.116Z,8.15
2022-10-04T03:22:43.656Z,8.10
2022-10-04T03:25:18.912Z,8.04
2022-10-04T03:27:47.852Z,8.03
2022-10-04T03:30:23.218Z,8.09
2022-10-04T03:32:50.495Z,8.08
2022-10-04T03:35:36.808Z,8.14
2022-10-04T03:38:08.998Z,8.17
2022-10-04T03:40:38.589Z,8.23
2022-10-04T03:43:06.681Z,8.23
2022-10-04T03:45:35.258Z,8.23
2022-10-04T03:48:06.882Z,8.13
2022-10-04T03:50:39.271Z,8.11
2022-10-04T03:53:22.478Z,8.08
2022-10-04T03:55:49.112Z,8.07
2022-10-04T03:58:18.446Z,8.08
2022-10-04T04:01:36.107Z,8.13
2022-10-04T04:04:36.759Z,8.18
2022-10-04T04:07:12.273Z,8.22
2022-10-04T04:09:52.303Z,8.11
2022-10-04T04:12:54.478Z,8.05
2022-10-04T04:15:21.748Z,7.98
2022-10-04T04:17:52.377Z,8.00
2022-10-04T04:20:41.397Z,7.98
2022-10-04T04:23:33.750Z,8.02
2022-10-04T04:26:40.898Z,7.96
2022-10-04T04:29:24.782Z,7.96
2022-10-04T04:32:13.449Z,7.91
2022-10-04T04:34:53.101Z,7.90
2022-10-04T04:37:20.655Z,7.82
2022-10-04T04:39:52.193Z,7.80
2022-10-04T04:42:32.085Z,7.80
2022-10-04T04:45:22.759Z,7.86
2022-10-04T04:47:53.809Z,7.94
2022-10-04T04:50:23.831Z,7.99
2022-10-04T04:52:54.151Z,8.01
2022-10-04T04:55:24.510Z,8.00
2022-10-04T04:57:55.927Z,7.97
2022-10-04T05:00:28.780Z,7.97
2022-10-04T05:02:58.939Z,8.00
2022-10-04T05:05:32.517Z,7.97
2022-10-04T05:08:24.281Z,8.00
2022-10-04T05:11:16.465Z,7.97
2022-10-04T05:13:53.814Z,7.93
2022-10-04T05:16:42.797Z,7.97
2022-10-04T05:19:18.004Z,7.95
2022-10-04T05:21:49.352Z,7.94
2022-10-04T05:24:37.715Z,7.93
2022-10-04T05:27:08.551Z,7.88
2022-10-04T05:29:39.329Z,7.83
2022-10-04T05:32:44.978Z,7.80
2022-10-04T05:35:20.301Z,7.79
2022-10-04T05:38:05.950Z,7.80
2022-10-04T05:41:04.535Z,7.80
2022-10-04T05:43:44.630Z,7.87
2022-10-04T05:46:44.212Z,7.88
2022-10-04T05:49:18.921Z,7.83
2022-10-04T05:52:01.042Z,7.80
2022-10-04T05:54:31.372Z,7.87
2022-10-04T05:57:40.073Z,7.93
2022-10-04T06:00:12.825Z,8.03
2022-10-04T06:03:36.355Z,8.13
2022-10-04T06:06:12.689Z,8.27
2022-10-04T06:09:14.777Z,8.36
2022-10-04T06:12:02.141Z,8.43
2022-10-04T06:14:44.844Z,8.44
2022-10-04T06:17:38.141Z,8.53
2022-10-04T06:20:56.150Z,8.55
2022-10-04T06:23:25.371Z,8.62
2022-10-04T06:26:00.107Z,8.76
2022-10-04T06:28:35.164Z,8.88
2022-10-04T06:31:41.469Z,9.01
2022-10-04T06:34:44.871Z,9.14
2022-10-04T06:37:29.794Z,9.21
2022-10-04T06:40:36.462Z,9.35
2022-10-04T06:43:36.855Z,9.43
2022-10-04T06:46:17.493Z,9.61
2022-10-04T06:49:05.873Z,9.77
2022-10-04T06:52:05.747Z,9.87
2022-10-04T06:54:47.326Z,10.02
2022-10-04T06:57:39.973Z,10.17
2022-10-04T07:00:48.237Z,10.16
2022-10-04T07:03:27.538Z,10.11
2022-10-04T07:06:05.749Z,10.15
2022-10-04T07:08:52.662Z,10.17
2022-10-04T07:11:46.052Z,10.30
2022-10-04T07:14:18.759Z,10.41
2022-10-04T07:16:45.346Z,10.38
2022-10-04T07:19:45.594Z,10.26
2022-10-04T07:22:22.362Z,10.42
2022-10-04T07:25:19.020Z,10.50
2022-10-04T07:28:36.209Z,10.61
2022-10-04T07:31:13.419Z,10.76
2022-10-04T07:33:48.220Z,10.84
2022-10-04T07:36:25.283Z,10.94
2022-10-04T07:38:59.544Z,11.03
2022-10-04T07:41:36.399Z,11.07
2022-10-04T07:44:52.201Z,11.03
2022-10-04T07:47:21.546Z,11.15
2022-10-04T07:49:51.305Z,11.29
2022-10-04T07:52:45.627Z,11.47
2022-10-04T07:56:10.458Z,11.69
2022-10-04T07:59:18.483Z,11.72
2022-10-04T08:41:19.146Z,12.09
2022-10-04T09:27:36.827Z,13.19
2022-10-04T09:30:21.514Z,13.22
2022-10-04T09:52:53.998Z,13.21
2022-10-04T09:55:32.741Z,13.26
2022-10-04T09:58:46.323Z,13.29
2022-10-04T10:01:38.152Z,13.32
2022-10-04T10:04:54.436Z,13.40
2022-10-04T10:08:03.341Z,13.38
2022-10-04T10:11:19.975Z,13.35
2022-10-04T10:14:42.046Z,13.43
2022-10-04T10:17:45.161Z,13.35
2022-10-04T10:20:59.597Z,13.35
2022-10-04T10:23:46.368Z,13.43
2022-10-04T10:26:42.765Z,13.37
2022-10-04T10:29:32.131Z,13.43
2022-10-04T10:38:50.899Z,13.67
2022-10-04T10:51:10.458Z,13.84
2022-10-04T11:28:29.724Z,14.26
2022-10-04T11:31:18.081Z,14.28
2022-10-04T11:34:02.953Z,14.42
2022-10-04T11:36:54.002Z,14.37
2022-10-04T11:40:01.464Z,14.53
2022-10-04T11:42:52.908Z,14.52
2022-10-04T11:45:51.926Z,14.54
2022-10-04T11:49:26.318Z,14.45
2022-10-04T11:52:50.761Z,14.51
2022-10-04T11:56:11.516Z,14.51
2022-10-04T11:59:05.305Z,14.57
2022-10-04T12:02:27.156Z,14.59
2022-10-04T12:05:42.595Z,14.65
2022-10-04T12:08:33.444Z,14.75
2022-10-04T12:54:38.600Z,14.87
2022-10-04T12:57:41.014Z,14.87
2022-10-04T13:00:37.020Z,14.92
2022-10-04T13:03:44.910Z,14.93
2022-10-04T13:06:28.277Z,15.01
2022-10-04T13:09:48.577Z,15.02
2022-10-04T13:12:33.724Z,14.90
2022-10-04T13:17:25.175Z,14.87
2022-10-04T13:18:32.793Z,14.87
2022-10-04T13:21:09.154Z,14.89
2022-10-04T13:24:12.262Z,14.88
2022-10-04T13:38:58.761Z,15.01
2022-10-04T14:08:04.169Z,14.99
2022-10-04T14:11:09.214Z,14.88
2022-10-04T14:14:09.738Z,14.79
2022-10-04T14:21:01.840Z,14.53
2022-10-04T14:27:37.946Z,14.50
2022-10-04T15:09:38.464Z,14.15
2022-10-04T15:13:09.930Z,14.12
2022-10-04T15:16:14.978Z,14.05
2022-10-04T15:18:54.133Z,13.99
2022-10-04T15:21:20.913Z,13.92
2022-10-04T15:23:55.259Z,13.90
2022-10-04T15:27:04.995Z,13.88
2022-10-04T15:29:51.616Z,13.88
2022-10-04T15:33:00.274Z,13.88
2022-10-04T15:35:41.216Z,13.86
2022-10-04T15:38:32.728Z,13.86
2022-10-04T15:41:16.592Z,13.84
2022-10-04T15:44:06.034Z,13.81
2022-10-04T15:46:46.295Z,13.77
2022-10-04T15:49:38.147Z,13.70
2022-10-04T15:52:35.991Z,13.67
2022-10-04T15:55:17.170Z,13.66
2022-10-04T15:58:33.875Z,13.61
2022-10-04T16:01:33.947Z,13.55
2022-10-04T16:04:33.295Z,13.49
2022-10-04T16:07:35.610Z,13.42
2022-10-04T16:10:27.466Z,13.36
2022-10-04T16:13:35.771Z,13.31
2022-10-04T16:16:34.511Z,13.24
2022-10-04T16:19:35.880Z,13.19
2022-10-04T16:22:16.106Z,13.12
2022-10-04T16:25:38.538Z,13.07
2022-10-04T16:28:35.341Z,13.01
2022-10-04T16:31:24.855Z,12.94
2022-10-04T16:34:25.030Z,12.88
2022-10-04T16:36:58.779Z,12.83
2022-10-04T16:40:08.185Z,12.73
2022-10-04T16:42:49.832Z,12.66
2022-10-04T17:15:49.062Z,12.07
2022-10-04T17:25:04.393Z,11.84
2022-10-04T17:27:51.794Z,11.71
2022-10-04T17:30:24.456Z,11.65
2022-10-04T17:33:58.506Z,11.58
2022-10-04T17:36:45.224Z,11.51
2022-10-04T17:45:46.725Z,11.41
2022-10-04T17:48:59.894Z,11.39
2022-10-04T17:51:52.770Z,11.30
2022-10-04T17:54:41.989Z,11.25
2022-10-04T17:57:19.895Z,11.21
2022-10-04T17:59:52.846Z,11.16
2022-10-04T18:02:42.378Z,11.09
2022-10-04T18:05:47.215Z,11.03
2022-10-04T18:08:42.843Z,11.00
2022-10-04T18:11:43.746Z,10.96
2022-10-04T18:14:46.095Z,10.95
2022-10-04T18:17:30.651Z,10.96
2022-10-04T18:20:07.019Z,10.98
2022-10-04T18:22:49.836Z,10.97
2022-10-04T18:25:26.694Z,10.94
2022-10-04T18:28:29.951Z,10.92
2022-10-04T18:31:00.349Z,10.83
2022-10-04T18:33:58.070Z,10.74
2022-10-04T18:36:31.848Z,10.66
2022-10-04T18:39:33.708Z,10.63
2022-10-04T18:42:23.427Z,10.59
2022-10-04T18:45:01.690Z,10.56
2022-10-04T18:47:41.316Z,10.53
2022-10-04T18:50:39.250Z,10.59
2022-10-04T18:53:47.631Z,10.63
2022-10-04T18:56:15.522Z,10.58
2022-10-04T18:59:37.864Z,10.53
2022-10-04T19:02:24.692Z,10.46
2022-10-04T19:05:06.764Z,10.33
2022-10-04T19:07:58.779Z,10.26
2022-10-04T19:10:51.203Z,10.11
2022-10-04T19:13:52.991Z,10.04
2022-10-04T19:39:44.188Z,9.87
2022-10-04T19:42:46.574Z,9.87
2022-10-04T19:45:56.026Z,9.87
2022-10-04T19:48:27.511Z,9.89
2022-10-04T19:51:08.979Z,9.91
2022-10-04T19:53:43.223Z,9.89
2022-10-04T19:56:20.667Z,9.84
2022-10-04T19:59:04.931Z,9.84
2022-10-04T20:01:32.197Z,9.82
2022-10-04T20:04:17.549Z,9.84
2022-10-04T20:07:17.471Z,9.72
2022-10-04T20:09:54.573Z,9.63
2022-10-04T20:12:37.668Z,9.59
2022-10-04T20:15:44.437Z,9.49
2022-10-04T20:18:51.211Z,9.46
2022-10-04T20:21:26.501Z,9.38
2022-10-04T20:23:57.004Z,9.33
2022-10-04T20:26:56.039Z,9.31
2022-10-04T20:30:04.290Z,9.27
2022-10-04T20:32:54.211Z,9.31
2022-10-04T20:36:14.387Z,9.27
2022-10-04T20:39:04.971Z,9.25
2022-10-04T20:42:34.329Z,9.21
2022-10-04T20:45:03.706Z,9.18
2022-10-04T20:47:54.938Z,9.20
2022-10-04T20:50:39.908Z,9.08
2022-10-04T20:53:15.353Z,9.06
2022-10-04T20:55:44.219Z,9.03
2022-10-04T20:58:35.180Z,9.02
2022-10-04T21:01:41.304Z,9.07
2022-10-04T21:04:54.810Z,9.00
2022-10-04T21:07:26.714Z,9.07
2022-10-04T21:09:54.648Z,9.12
2022-10-04T21:12:39.228Z,9.10
2022-10-04T21:15:26.165Z,9.04
2022-10-04T21:18:10.933Z,9.03
2022-10-04T21:20:49.039Z,9.02
2022-10-04T21:23:34.112Z,9.00
2022-10-04T21:26:23.344Z,8.95
2022-10-04T21:28:57.258Z,8.96
2022-10-04T21:31:24.635Z,8.99
2022-10-04T21:33:51.281Z,9.00
2022-10-04T21:36:17.946Z,8.91
2022-10-04T21:38:44.635Z,8.86
2022-10-04T21:41:11.239Z,8.83
2022-10-04T21:43:37.832Z,8.75
2022-10-04T21:46:04.502Z,8.62
2022-10-04T21:48:31.155Z,8.57
2022-10-04T21:50:57.996Z,8.55
2022-10-04T21:53:24.669Z,8.54
2022-10-04T21:55:51.237Z,8.53
2022-10-04T21:58:17.871Z,8.50
2022-10-04T22:00:44.440Z,8.47
2022-10-04T22:03:11.095Z,8.44
2022-10-04T22:05:37.783Z,8.39
2022-10-04T22:08:04.543Z,8.48
2022-10-04T22:10:31.264Z,8.43
2022-10-04T22:12:57.883Z,8.43
2022-10-04T22:15:26.571Z,8.42
2022-10-04T22:17:53.623Z,8.43
2022-10-04T22:20:20.567Z,8.41
2022-10-04T22:22:47.186Z,8.39
2022-10-04T22:25:19.489Z,8.38
2022-10-04T22:27:47.404Z,8.32
2022-10-04T22:30:27.052Z,8.28
2022-10-04T22:32:56.038Z,8.30
2022-10-04T22:35:22.985Z,8.28
2022-10-04T22:37:49.913Z,8.26
2022-10-04T22:40:23.062Z,8.28
2022-10-04T22:42:55.810Z,8.25
2022-10-04T22:45:25.625Z,8.28
2022-10-04T22:47:53.477Z,8.35
2022-10-04T22:50:35.923Z,8.26
2022-10-04T22:53:16.156Z,8.18
2022-10-04T22:55:43.061Z,8.19
2022-10-04T22:58:16.313Z,8.24
2022-10-04T23:00:44.777Z,8.30
2022-10-04T23:03:47.211Z,8.27
2022-10-04T23:06:14.437Z,8.26
2022-10-04T23:08:42.041Z,8.27
2022-10-04T23:11:11.679Z,8.26
2022-10-04T23:13:38.614Z,8.20
2022-10-04T23:16:14.441Z,8.15
2022-10-04T23:18:41.443Z,8.21
2022-10-04T23:21:34.943Z,8.20
2022-10-04T23:24:22.286Z,8.17
2022-10-04T23:26:56.472Z,8.17
2022-10-04T23:29:29.519Z,8.12
2022-10-04T23:31:57.615Z,8.11
2022-10-04T23:34:33.331Z,8.12
2022-10-04T23:37:00.297Z,8.08
2022-10-04T23:39:30.646Z,7.94
2022-10-04T23:41:57.971Z,7.83
2022-10-04T23:44:30.064Z,7.82
2022-10-04T23:46:56.669Z,7.91
2022-10-04T23:49:23.585Z,7.88
2022-10-04T23:51:58.322Z,7.93
2022-10-04T23:54:26.462Z,7.96
2022-10-04T23:56:53.442Z,8.08
2022-10-04T23:59:23.722Z,8.13
